NCAR-RAP Real-Time Weather Data

Output produced by METARs form (14 June 2021  07:08 UTC)
found at http://weather.rap.ucar.edu/surface/
 
KFLO 140653Z AUTO 27004KT 10SM SCT045 22/18 A2987 RMK AO2 SLP111 T02220183
KFLO 140553Z AUTO 00000KT 10SM CLR 22/19 A2987 RMK AO2 SLP110 T02170189 10272 20206 58011
KFLO 140453Z AUTO 00000KT 10SM CLR 22/19 A2989 RMK AO2 SLP118 T02170189 402940211
KFLO 140353Z AUTO 00000KT 10SM CLR 22/19 A2989 RMK AO2 SLP120 T02220194
KFLO 140253Z AUTO 00000KT 10SM CLR 22/19 A2990 RMK AO2 SLP122 T02220194 51017
KFLO 140153Z AUTO 00000KT 10SM CLR 23/19 A2989 RMK AO2 SLP119 T02330194
KFLO 140053Z 00000KT 10SM CLR 25/19 A2987 RMK AO2 SLP113 T02500194
KFLO 132353Z 16004KT 10SM CLR 27/18 A2985 RMK AO2 SLP104 T02720183 10294 20267 55001
KFLO 132253Z 11006KT 10SM CLR 28/17 A2983 RMK AO2 SLP099 T02830172
KFLO 132153Z 06007KT 10SM CLR 29/17 A2984 RMK AO2 SLP100 T02940172
KFLO 132053Z 03007KT 10SM CLR 28/17 A2985 RMK AO2 SLP105 T02830167 58018
KFLO 131953Z 35005KT 10SM FEW095 28/17 A2987 RMK AO2 SLP112 T02780172
KFLO 131853Z 02006KT 10SM FEW095 28/17 A2989 RMK AO2 SLP119 T02780167
KFLO 131753Z 01007KT 10SM FEW044 SCT065 SCT090 27/16 A2990 RMK AO2 SLP123 T02720161 10272 20211 58002